Terminal Aerodrome Forecast
Issued by NWS Wilmington, OH

Current Version | Previous Version | Graphics & Text | Print | Product List | Glossary On
Versions: 1 2 3 4 5 6 7 8 9 10 11 12 13 14 15 16
000
FTUS41 KILN 221700
TAFDAY
TAF
KDAY 221722Z 2218/2318 20012G20KT P6SM BKN080
     FM222300 19010KT P6SM BKN080
     FM230400 18008KT P6SM VCSH SCT060 BKN120
     FM230900 17008KT P6SM SCT040 BKN080
      TEMPO 2309/2313 BKN025
     FM231400 16012KT P6SM SCT040 BKN150=

USA.gov is the U.S. government's official web portal to all federal, state and local government web resources and services.